sensor_id;sensor_type;location;lat;lon;timestamp;P1;durP1;ratioP1;P2;durP2;ratioP2
73919;SDS011;62266;53.348;-1.496;2024-03-06T00:02:07;12.88;;;8.32;;
73919;SDS011;62266;53.348;-1.496;2024-03-06T00:04:51;12.45;;;8.32;;
73919;SDS011;62266;53.348;-1.496;2024-03-06T00:07:35;11.87;;;8.07;;
73919;SDS011;62266;53.348;-1.496;2024-03-06T00:10:19;15.52;;;8.85;;
73919;SDS011;62266;53.348;-1.496;2024-03-06T00:13:03;13.55;;;9.32;;
73919;SDS011;62266;53.348;-1.496;2024-03-06T00:15:47;15.32;;;9.23;;
73919;SDS011;62266;53.348;-1.496;2024-03-06T00:18:31;14.75;;;8.80;;
73919;SDS011;62266;53.348;-1.496;2024-03-06T00:21:15;14.30;;;8.60;;
73919;SDS011;62266;53.348;-1.496;2024-03-06T00:23:59;14.65;;;9.45;;
73919;SDS011;62266;53.348;-1.496;2024-03-06T00:26:44;13.68;;;8.95;;
73919;SDS011;62266;53.348;-1.496;2024-03-06T00:29:28;15.15;;;9.75;;
73919;SDS011;62266;53.348;-1.496;2024-03-06T00:32:12;15.13;;;9.95;;
73919;SDS011;62266;53.348;-1.496;2024-03-06T00:34:56;16.23;;;10.27;;
73919;SDS011;62266;53.348;-1.496;2024-03-06T00:37:40;16.08;;;9.98;;
73919;SDS011;62266;53.348;-1.496;2024-03-06T00:40:24;15.63;;;10.10;;
73919;SDS011;62266;53.348;-1.496;2024-03-06T00:43:08;15.10;;;9.52;;
73919;SDS011;62266;53.348;-1.496;2024-03-06T00:45:52;15.65;;;9.73;;
73919;SDS011;62266;53.348;-1.496;2024-03-06T00:48:36;16.47;;;9.43;;
73919;SDS011;62266;53.348;-1.496;2024-03-06T00:51:22;14.38;;;9.25;;
73919;SDS011;62266;53.348;-1.496;2024-03-06T00:54:06;16.05;;;9.75;;
73919;SDS011;62266;53.348;-1.496;2024-03-06T00:56:50;13.52;;;9.05;;
73919;SDS011;62266;53.348;-1.496;2024-03-06T00:59:34;14.65;;;9.13;;
73919;SDS011;62266;53.348;-1.496;2024-03-06T01:02:18;16.23;;;9.20;;
73919;SDS011;62266;53.348;-1.496;2024-03-06T01:05:03;15.23;;;9.25;;
73919;SDS011;62266;53.348;-1.496;2024-03-06T01:07:53;18.27;;;10.10;;
73919;SDS011;62266;53.348;-1.496;2024-03-06T01:10:38;18.27;;;10.63;;
73919;SDS011;62266;53.348;-1.496;2024-03-06T01:13:22;15.77;;;10.00;;
73919;SDS011;62266;53.348;-1.496;2024-03-06T01:16:06;16.53;;;9.93;;
73919;SDS011;62266;53.348;-1.496;2024-03-06T01:18:50;17.30;;;10.35;;
73919;SDS011;62266;53.348;-1.496;2024-03-06T01:21:34;17.63;;;9.95;;
73919;SDS011;62266;53.348;-1.496;2024-03-06T01:24:18;19.52;;;9.73;;
73919;SDS011;62266;53.348;-1.496;2024-03-06T01:27:02;17.25;;;9.82;;
73919;SDS011;62266;53.348;-1.496;2024-03-06T01:29:46;18.13;;;8.93;;
73919;SDS011;62266;53.348;-1.496;2024-03-06T01:32:30;15.63;;;9.73;;
73919;SDS011;62266;53.348;-1.496;2024-03-06T01:35:16;16.73;;;9.48;;
73919;SDS011;62266;53.348;-1.496;2024-03-06T01:38:00;16.05;;;9.75;;
73919;SDS011;62266;53.348;-1.496;2024-03-06T01:40:45;16.23;;;9.02;;
73919;SDS011;62266;53.348;-1.496;2024-03-06T01:43:29;15.97;;;8.90;;
73919;SDS011;62266;53.348;-1.496;2024-03-06T01:46:21;14.27;;;8.77;;
73919;SDS011;62266;53.348;-1.496;2024-03-06T01:49:05;16.00;;;9.70;;
73919;SDS011;62266;53.348;-1.496;2024-03-06T01:51:51;17.17;;;9.30;;
73919;SDS011;62266;53.348;-1.496;2024-03-06T01:54:40;18.02;;;10.45;;
73919;SDS011;62266;53.348;-1.496;2024-03-06T01:57:24;15.87;;;9.10;;
73919;SDS011;62266;53.348;-1.496;2024-03-06T02:00:08;16.08;;;9.18;;
73919;SDS011;62266;53.348;-1.496;2024-03-06T02:02:57;14.52;;;9.57;;
73919;SDS011;62266;53.348;-1.496;2024-03-06T02:05:41;15.25;;;8.85;;
73919;SDS011;62266;53.348;-1.496;2024-03-06T02:08:25;16.52;;;10.02;;
73919;SDS011;62266;53.348;-1.496;2024-03-06T02:11:09;14.93;;;9.00;;
73919;SDS011;62266;53.348;-1.496;2024-03-06T02:13:53;13.70;;;8.98;;
73919;SDS011;62266;53.348;-1.496;2024-03-06T02:16:37;14.77;;;8.52;;
73919;SDS011;62266;53.348;-1.496;2024-03-06T02:19:23;14.02;;;8.43;;
73919;SDS011;62266;53.348;-1.496;2024-03-06T02:22:07;14.95;;;8.80;;
73919;SDS011;62266;53.348;-1.496;2024-03-06T02:24:52;14.33;;;8.43;;
73919;SDS011;62266;53.348;-1.496;2024-03-06T02:27:35;16.40;;;9.02;;
73919;SDS011;62266;53.348;-1.496;2024-03-06T02:30:21;15.73;;;9.18;;
73919;SDS011;62266;53.348;-1.496;2024-03-06T02:33:05;14.52;;;8.65;;
73919;SDS011;62266;53.348;-1.496;2024-03-06T02:35:50;15.35;;;8.57;;
73919;SDS011;62266;53.348;-1.496;2024-03-06T02:38:34;14.00;;;8.00;;
73919;SDS011;62266;53.348;-1.496;2024-03-06T02:41:19;16.00;;;8.35;;
73919;SDS011;62266;53.348;-1.496;2024-03-06T02:44:03;13.55;;;8.18;;
73919;SDS011;62266;53.348;-1.496;2024-03-06T02:46:48;13.70;;;7.75;;
73919;SDS011;62266;53.348;-1.496;2024-03-06T02:49:35;14.77;;;7.70;;
73919;SDS011;62266;53.348;-1.496;2024-03-06T02:52:18;14.17;;;7.90;;
73919;SDS011;62266;53.348;-1.496;2024-03-06T02:55:02;15.63;;;8.60;;
73919;SDS011;62266;53.348;-1.496;2024-03-06T02:57:47;15.30;;;8.55;;
73919;SDS011;62266;53.348;-1.496;2024-03-06T03:00:31;15.48;;;8.70;;
73919;SDS011;62266;53.348;-1.496;2024-03-06T03:03:15;17.23;;;8.48;;
73919;SDS011;62266;53.348;-1.496;2024-03-06T03:05:59;14.40;;;8.17;;
73919;SDS011;62266;53.348;-1.496;2024-03-06T03:08:43;14.75;;;8.57;;
73919;SDS011;62266;53.348;-1.496;2024-03-06T03:11:27;14.77;;;7.82;;
73919;SDS011;62266;53.348;-1.496;2024-03-06T03:14:11;12.95;;;7.55;;
73919;SDS011;62266;53.348;-1.496;2024-03-06T03:16:55;13.77;;;7.88;;
73919;SDS011;62266;53.348;-1.496;2024-03-06T03:19:39;12.77;;;7.57;;
73919;SDS011;62266;53.348;-1.496;2024-03-06T03:22:23;12.73;;;6.90;;
73919;SDS011;62266;53.348;-1.496;2024-03-06T03:25:08;16.77;;;7.68;;
73919;SDS011;62266;53.348;-1.496;2024-03-06T03:27:53;13.13;;;7.45;;
73919;SDS011;62266;53.348;-1.496;2024-03-06T03:30:37;14.77;;;7.78;;
73919;SDS011;62266;53.348;-1.496;2024-03-06T03:33:22;13.23;;;7.30;;
73919;SDS011;62266;53.348;-1.496;2024-03-06T03:36:06;13.60;;;7.47;;
73919;SDS011;62266;53.348;-1.496;2024-03-06T03:38:51;13.02;;;7.13;;
73919;SDS011;62266;53.348;-1.496;2024-03-06T03:41:35;14.00;;;7.93;;
73919;SDS011;62266;53.348;-1.496;2024-03-06T03:44:19;15.52;;;7.63;;
73919;SDS011;62266;53.348;-1.496;2024-03-06T03:47:03;13.90;;;8.13;;
73919;SDS011;62266;53.348;-1.496;2024-03-06T03:49:47;12.63;;;7.40;;
73919;SDS011;62266;53.348;-1.496;2024-03-06T03:52:31;13.43;;;7.72;;
73919;SDS011;62266;53.348;-1.496;2024-03-06T03:55:15;12.80;;;8.25;;
73919;SDS011;62266;53.348;-1.496;2024-03-06T03:57:59;13.50;;;7.78;;
73919;SDS011;62266;53.348;-1.496;2024-03-06T04:00:43;11.73;;;6.57;;
73919;SDS011;62266;53.348;-1.496;2024-03-06T04:03:28;13.65;;;7.28;;
73919;SDS011;62266;53.348;-1.496;2024-03-06T04:06:12;14.40;;;8.00;;
73919;SDS011;62266;53.348;-1.496;2024-03-06T04:08:55;12.57;;;7.47;;
73919;SDS011;62266;53.348;-1.496;2024-03-06T04:11:40;12.82;;;7.43;;
73919;SDS011;62266;53.348;-1.496;2024-03-06T04:14:24;14.20;;;7.53;;
73919;SDS011;62266;53.348;-1.496;2024-03-06T04:17:10;13.77;;;7.43;;
73919;SDS011;62266;53.348;-1.496;2024-03-06T04:19:54;12.80;;;7.18;;
73919;SDS011;62266;53.348;-1.496;2024-03-06T04:22:39;12.70;;;7.40;;
73919;SDS011;62266;53.348;-1.496;2024-03-06T04:25:24;15.68;;;7.45;;
73919;SDS011;62266;53.348;-1.496;2024-03-06T04:28:08;13.53;;;7.03;;
73919;SDS011;62266;53.348;-1.496;2024-03-06T04:30:52;12.23;;;6.85;;
73919;SDS011;62266;53.348;-1.496;2024-03-06T04:33:36;12.63;;;6.53;;
73919;SDS011;62266;53.348;-1.496;2024-03-06T04:36:20;10.95;;;6.20;;
73919;SDS011;62266;53.348;-1.496;2024-03-06T04:39:04;12.10;;;6.15;;
73919;SDS011;62266;53.348;-1.496;2024-03-06T04:41:51;12.20;;;6.90;;
73919;SDS011;62266;53.348;-1.496;2024-03-06T04:44:35;11.75;;;6.78;;
73919;SDS011;62266;53.348;-1.496;2024-03-06T04:47:20;12.93;;;6.45;;
73919;SDS011;62266;53.348;-1.496;2024-03-06T04:50:09;13.20;;;6.68;;
73919;SDS011;62266;53.348;-1.496;2024-03-06T04:52:54;11.48;;;6.43;;
73919;SDS011;62266;53.348;-1.496;2024-03-06T04:55:39;11.40;;;6.60;;
73919;SDS011;62266;53.348;-1.496;2024-03-06T04:58:23;12.25;;;6.40;;
73919;SDS011;62266;53.348;-1.496;2024-03-06T05:01:07;14.43;;;7.15;;
73919;SDS011;62266;53.348;-1.496;2024-03-06T05:03:52;12.02;;;6.85;;
73919;SDS011;62266;53.348;-1.496;2024-03-06T05:06:37;17.23;;;7.13;;
73919;SDS011;62266;53.348;-1.496;2024-03-06T05:09:21;12.67;;;7.10;;
73919;SDS011;62266;53.348;-1.496;2024-03-06T05:12:05;12.52;;;6.93;;
73919;SDS011;62266;53.348;-1.496;2024-03-06T05:14:50;12.88;;;7.18;;
73919;SDS011;62266;53.348;-1.496;2024-03-06T05:17:35;14.75;;;7.07;;
73919;SDS011;62266;53.348;-1.496;2024-03-06T05:20:19;13.80;;;7.82;;
73919;SDS011;62266;53.348;-1.496;2024-03-06T05:23:03;13.87;;;7.77;;
73919;SDS011;62266;53.348;-1.496;2024-03-06T05:25:47;12.48;;;7.10;;
73919;SDS011;62266;53.348;-1.496;2024-03-06T05:28:31;13.93;;;7.55;;
73919;SDS011;62266;53.348;-1.496;2024-03-06T05:31:19;13.82;;;7.65;;
73919;SDS011;62266;53.348;-1.496;2024-03-06T05:34:03;15.00;;;7.63;;
73919;SDS011;62266;53.348;-1.496;2024-03-06T05:36:49;12.70;;;7.17;;
73919;SDS011;62266;53.348;-1.496;2024-03-06T05:39:33;14.52;;;7.30;;
73919;SDS011;62266;53.348;-1.496;2024-03-06T05:42:17;12.25;;;7.20;;
73919;SDS011;62266;53.348;-1.496;2024-03-06T05:45:01;14.10;;;7.65;;
73919;SDS011;62266;53.348;-1.496;2024-03-06T05:47:48;15.88;;;8.00;;
73919;SDS011;62266;53.348;-1.496;2024-03-06T05:50:33;13.57;;;7.37;;
73919;SDS011;62266;53.348;-1.496;2024-03-06T05:53:17;11.63;;;6.82;;
73919;SDS011;62266;53.348;-1.496;2024-03-06T05:56:01;14.13;;;7.28;;
73919;SDS011;62266;53.348;-1.496;2024-03-06T05:58:45;13.73;;;7.38;;
73919;SDS011;62266;53.348;-1.496;2024-03-06T06:01:30;13.80;;;7.82;;
73919;SDS011;62266;53.348;-1.496;2024-03-06T06:04:15;15.40;;;8.57;;
73919;SDS011;62266;53.348;-1.496;2024-03-06T06:06:59;15.48;;;8.40;;
73919;SDS011;62266;53.348;-1.496;2024-03-06T06:09:43;15.32;;;8.10;;
73919;SDS011;62266;53.348;-1.496;2024-03-06T06:12:27;18.10;;;8.38;;
73919;SDS011;62266;53.348;-1.496;2024-03-06T06:15:11;15.05;;;8.98;;
73919;SDS011;62266;53.348;-1.496;2024-03-06T06:17:55;16.10;;;8.90;;
73919;SDS011;62266;53.348;-1.496;2024-03-06T06:20:40;14.40;;;7.97;;
73919;SDS011;62266;53.348;-1.496;2024-03-06T06:23:26;15.70;;;8.43;;
73919;SDS011;62266;53.348;-1.496;2024-03-06T06:26:10;17.23;;;9.85;;
73919;SDS011;62266;53.348;-1.496;2024-03-06T06:28:56;16.02;;;8.30;;
73919;SDS011;62266;53.348;-1.496;2024-03-06T06:31:41;19.83;;;8.97;;
73919;SDS011;62266;53.348;-1.496;2024-03-06T06:34:24;14.60;;;7.93;;
73919;SDS011;62266;53.348;-1.496;2024-03-06T06:37:11;16.90;;;8.45;;
73919;SDS011;62266;53.348;-1.496;2024-03-06T06:39:55;17.95;;;9.25;;
73919;SDS011;62266;53.348;-1.496;2024-03-06T06:42:45;18.88;;;8.88;;
73919;SDS011;62266;53.348;-1.496;2024-03-06T06:45:33;17.10;;;8.73;;
73919;SDS011;62266;53.348;-1.496;2024-03-06T06:48:17;17.60;;;9.88;;
73919;SDS011;62266;53.348;-1.496;2024-03-06T06:51:02;18.20;;;8.52;;
73919;SDS011;62266;53.348;-1.496;2024-03-06T06:53:47;16.17;;;8.40;;
73919;SDS011;62266;53.348;-1.496;2024-03-06T06:56:31;17.98;;;9.25;;
73919;SDS011;62266;53.348;-1.496;2024-03-06T06:59:15;18.47;;;8.30;;
73919;SDS011;62266;53.348;-1.496;2024-03-06T07:01:58;16.88;;;8.95;;
73919;SDS011;62266;53.348;-1.496;2024-03-06T07:04:42;16.80;;;8.63;;
73919;SDS011;62266;53.348;-1.496;2024-03-06T07:07:26;21.90;;;9.40;;
73919;SDS011;62266;53.348;-1.496;2024-03-06T07:10:10;19.15;;;10.18;;
73919;SDS011;62266;53.348;-1.496;2024-03-06T07:12:54;16.40;;;8.50;;
73919;SDS011;62266;53.348;-1.496;2024-03-06T07:15:39;23.73;;;10.48;;
73919;SDS011;62266;53.348;-1.496;2024-03-06T07:18:23;20.13;;;9.88;;
73919;SDS011;62266;53.348;-1.496;2024-03-06T07:21:07;20.42;;;9.65;;
73919;SDS011;62266;53.348;-1.496;2024-03-06T07:23:52;23.42;;;10.18;;
73919;SDS011;62266;53.348;-1.496;2024-03-06T07:26:36;18.50;;;9.13;;
73919;SDS011;62266;53.348;-1.496;2024-03-06T07:29:20;22.65;;;9.95;;
73919;SDS011;62266;53.348;-1.496;2024-03-06T07:32:04;24.50;;;11.38;;
73919;SDS011;62266;53.348;-1.496;2024-03-06T07:34:51;24.67;;;11.30;;
73919;SDS011;62266;53.348;-1.496;2024-03-06T07:37:35;24.85;;;11.63;;
73919;SDS011;62266;53.348;-1.496;2024-03-06T07:40:19;28.80;;;11.03;;
73919;SDS011;62266;53.348;-1.496;2024-03-06T07:43:03;30.33;;;12.05;;
73919;SDS011;62266;53.348;-1.496;2024-03-06T07:45:48;23.13;;;11.00;;
73919;SDS011;62266;53.348;-1.496;2024-03-06T07:48:32;24.40;;;11.88;;
73919;SDS011;62266;53.348;-1.496;2024-03-06T07:51:16;28.58;;;11.77;;
73919;SDS011;62266;53.348;-1.496;2024-03-06T07:54:00;25.53;;;11.67;;
73919;SDS011;62266;53.348;-1.496;2024-03-06T07:56:45;30.92;;;13.15;;
73919;SDS011;62266;53.348;-1.496;2024-03-06T07:59:29;30.50;;;14.07;;
73919;SDS011;62266;53.348;-1.496;2024-03-06T08:02:13;38.60;;;14.55;;
73919;SDS011;62266;53.348;-1.496;2024-03-06T08:04:57;37.58;;;14.82;;
73919;SDS011;62266;53.348;-1.496;2024-03-06T08:07:41;47.53;;;16.40;;
73919;SDS011;62266;53.348;-1.496;2024-03-06T08:10:26;51.35;;;17.48;;
73919;SDS011;62266;53.348;-1.496;2024-03-06T08:13:10;53.88;;;18.35;;
73919;SDS011;62266;53.348;-1.496;2024-03-06T08:15:54;61.80;;;18.40;;
73919;SDS011;62266;53.348;-1.496;2024-03-06T08:18:38;57.33;;;20.17;;
73919;SDS011;62266;53.348;-1.496;2024-03-06T08:21:22;66.97;;;20.63;;
73919;SDS011;62266;53.348;-1.496;2024-03-06T08:24:06;61.00;;;18.23;;
73919;SDS011;62266;53.348;-1.496;2024-03-06T08:26:50;64.07;;;21.15;;
73919;SDS011;62266;53.348;-1.496;2024-03-06T08:29:35;58.33;;;19.55;;
73919;SDS011;62266;53.348;-1.496;2024-03-06T08:32:19;49.97;;;18.50;;
73919;SDS011;62266;53.348;-1.496;2024-03-06T08:35:08;60.33;;;18.40;;
73919;SDS011;62266;53.348;-1.496;2024-03-06T08:37:55;54.28;;;18.55;;
73919;SDS011;62266;53.348;-1.496;2024-03-06T08:40:39;53.55;;;18.58;;
73919;SDS011;62266;53.348;-1.496;2024-03-06T08:43:26;60.45;;;19.65;;
73919;SDS011;62266;53.348;-1.496;2024-03-06T08:46:10;56.90;;;20.25;;
73919;SDS011;62266;53.348;-1.496;2024-03-06T08:48:53;52.97;;;18.93;;
73919;SDS011;62266;53.348;-1.496;2024-03-06T08:51:37;47.95;;;17.70;;
73919;SDS011;62266;53.348;-1.496;2024-03-06T08:54:21;56.40;;;19.25;;
73919;SDS011;62266;53.348;-1.496;2024-03-06T08:57:05;52.08;;;18.98;;
73919;SDS011;62266;53.348;-1.496;2024-03-06T08:59:49;61.25;;;21.70;;
73919;SDS011;62266;53.348;-1.496;2024-03-06T09:02:33;53.73;;;19.80;;
73919;SDS011;62266;53.348;-1.496;2024-03-06T09:05:17;52.00;;;19.92;;
73919;SDS011;62266;53.348;-1.496;2024-03-06T09:08:01;48.55;;;17.52;;
73919;SDS011;62266;53.348;-1.496;2024-03-06T09:10:45;40.97;;;15.45;;
73919;SDS011;62266;53.348;-1.496;2024-03-06T09:13:29;43.05;;;16.52;;
73919;SDS011;62266;53.348;-1.496;2024-03-06T09:16:13;46.23;;;17.97;;
73919;SDS011;62266;53.348;-1.496;2024-03-06T09:18:57;46.88;;;18.13;;
73919;SDS011;62266;53.348;-1.496;2024-03-06T09:21:42;42.97;;;16.95;;
73919;SDS011;62266;53.348;-1.496;2024-03-06T09:24:26;45.85;;;17.13;;
73919;SDS011;62266;53.348;-1.496;2024-03-06T09:27:10;43.17;;;18.88;;
73919;SDS011;62266;53.348;-1.496;2024-03-06T09:29:54;47.43;;;18.47;;
73919;SDS011;62266;53.348;-1.496;2024-03-06T09:32:40;44.75;;;18.05;;
73919;SDS011;62266;53.348;-1.496;2024-03-06T09:35:25;38.63;;;17.30;;
73919;SDS011;62266;53.348;-1.496;2024-03-06T09:38:09;38.88;;;16.33;;
73919;SDS011;62266;53.348;-1.496;2024-03-06T09:40:55;45.00;;;17.83;;
73919;SDS011;62266;53.348;-1.496;2024-03-06T09:43:40;44.67;;;18.67;;
73919;SDS011;62266;53.348;-1.496;2024-03-06T09:46:27;45.47;;;18.30;;
73919;SDS011;62266;53.348;-1.496;2024-03-06T09:49:12;43.90;;;17.80;;
73919;SDS011;62266;53.348;-1.496;2024-03-06T09:51:59;42.10;;;16.73;;
73919;SDS011;62266;53.348;-1.496;2024-03-06T09:54:46;48.55;;;20.05;;
73919;SDS011;62266;53.348;-1.496;2024-03-06T09:57:31;49.07;;;21.40;;
73919;SDS011;62266;53.348;-1.496;2024-03-06T10:00:15;51.50;;;21.17;;
73919;SDS011;62266;53.348;-1.496;2024-03-06T10:03:01;51.50;;;21.17;;
73919;SDS011;62266;53.348;-1.496;2024-03-06T10:05:49;49.72;;;21.15;;
73919;SDS011;62266;53.348;-1.496;2024-03-06T10:08:33;46.85;;;19.50;;
73919;SDS011;62266;53.348;-1.496;2024-03-06T10:11:18;51.60;;;21.00;;
73919;SDS011;62266;53.348;-1.496;2024-03-06T10:14:02;50.47;;;21.15;;
73919;SDS011;62266;53.348;-1.496;2024-03-06T10:16:52;56.88;;;22.75;;
73919;SDS011;62266;53.348;-1.496;2024-03-06T10:19:37;45.50;;;21.05;;
73919;SDS011;62266;53.348;-1.496;2024-03-06T10:22:23;43.78;;;18.48;;
73919;SDS011;62266;53.348;-1.496;2024-03-06T10:25:07;36.87;;;17.00;;
73919;SDS011;62266;53.348;-1.496;2024-03-06T10:28:06;38.55;;;17.20;;
73919;SDS011;62266;53.348;-1.496;2024-03-06T10:30:51;40.13;;;17.27;;
73919;SDS011;62266;53.348;-1.496;2024-03-06T10:33:35;39.03;;;18.48;;
73919;SDS011;62266;53.348;-1.496;2024-03-06T10:36:21;45.53;;;18.60;;
73919;SDS011;62266;53.348;-1.496;2024-03-06T10:39:06;33.30;;;15.73;;
73919;SDS011;62266;53.348;-1.496;2024-03-06T10:41:52;43.10;;;18.17;;
73919;SDS011;62266;53.348;-1.496;2024-03-06T10:44:38;40.47;;;17.15;;
73919;SDS011;62266;53.348;-1.496;2024-03-06T10:47:32;37.13;;;15.57;;
73919;SDS011;62266;53.348;-1.496;2024-03-06T10:50:16;35.05;;;15.50;;
73919;SDS011;62266;53.348;-1.496;2024-03-06T10:53:00;33.37;;;14.03;;
73919;SDS011;62266;53.348;-1.496;2024-03-06T10:55:47;30.98;;;14.55;;
73919;SDS011;62266;53.348;-1.496;2024-03-06T10:58:33;35.53;;;15.02;;
73919;SDS011;62266;53.348;-1.496;2024-03-06T11:01:17;38.58;;;15.60;;
73919;SDS011;62266;53.348;-1.496;2024-03-06T11:04:03;37.60;;;16.80;;
73919;SDS011;62266;53.348;-1.496;2024-03-06T11:06:47;37.53;;;15.90;;
73919;SDS011;62266;53.348;-1.496;2024-03-06T11:09:35;43.58;;;17.35;;
73919;SDS011;62266;53.348;-1.496;2024-03-06T11:12:36;39.30;;;18.15;;
73919;SDS011;62266;53.348;-1.496;2024-03-06T11:15:22;38.58;;;16.98;;
73919;SDS011;62266;53.348;-1.496;2024-03-06T11:24:12;37.78;;;15.82;;
73919;SDS011;62266;53.348;-1.496;2024-03-06T11:27:01;33.58;;;15.38;;
73919;SDS011;62266;53.348;-1.496;2024-03-06T11:32:58;38.92;;;17.20;;
73919;SDS011;62266;53.348;-1.496;2024-03-06T11:41:50;36.58;;;16.92;;
73919;SDS011;62266;53.348;-1.496;2024-03-06T11:44:46;39.03;;;18.02;;
73919;SDS011;62266;53.348;-1.496;2024-03-06T11:47:55;39.17;;;16.52;;
73919;SDS011;62266;53.348;-1.496;2024-03-06T11:50:39;34.03;;;16.53;;
73919;SDS011;62266;53.348;-1.496;2024-03-06T11:53:23;34.30;;;16.20;;
73919;SDS011;62266;53.348;-1.496;2024-03-06T11:56:09;34.25;;;16.00;;
73919;SDS011;62266;53.348;-1.496;2024-03-06T11:58:53;35.22;;;16.60;;
73919;SDS011;62266;53.348;-1.496;2024-03-06T12:01:37;32.88;;;15.80;;
73919;SDS011;62266;53.348;-1.496;2024-03-06T12:04:21;29.90;;;15.50;;
73919;SDS011;62266;53.348;-1.496;2024-03-06T12:07:06;36.88;;;16.33;;
73919;SDS011;62266;53.348;-1.496;2024-03-06T12:09:51;32.72;;;14.65;;
73919;SDS011;62266;53.348;-1.496;2024-03-06T12:12:40;27.73;;;14.40;;
73919;SDS011;62266;53.348;-1.496;2024-03-06T12:15:24;27.38;;;13.50;;
73919;SDS011;62266;53.348;-1.496;2024-03-06T12:18:08;30.17;;;14.77;;
73919;SDS011;62266;53.348;-1.496;2024-03-06T12:20:53;22.73;;;12.85;;
73919;SDS011;62266;53.348;-1.496;2024-03-06T12:23:37;27.42;;;13.30;;
73919;SDS011;62266;53.348;-1.496;2024-03-06T12:26:22;28.10;;;13.68;;
73919;SDS011;62266;53.348;-1.496;2024-03-06T12:29:10;29.63;;;14.65;;
73919;SDS011;62266;53.348;-1.496;2024-03-06T12:31:54;26.23;;;12.83;;
73919;SDS011;62266;53.348;-1.496;2024-03-06T12:34:40;25.35;;;12.45;;
73919;SDS011;62266;53.348;-1.496;2024-03-06T12:37:33;26.13;;;12.95;;
73919;SDS011;62266;53.348;-1.496;2024-03-06T12:40:19;27.50;;;12.13;;
73919;SDS011;62266;53.348;-1.496;2024-03-06T12:43:03;23.95;;;12.55;;
73919;SDS011;62266;53.348;-1.496;2024-03-06T12:45:48;23.97;;;12.33;;
73919;SDS011;62266;53.348;-1.496;2024-03-06T12:48:32;19.73;;;12.35;;
73919;SDS011;62266;53.348;-1.496;2024-03-06T12:51:16;21.48;;;12.85;;
73919;SDS011;62266;53.348;-1.496;2024-03-06T12:54:00;19.60;;;11.35;;
73919;SDS011;62266;53.348;-1.496;2024-03-06T12:56:47;23.48;;;12.52;;
73919;SDS011;62266;53.348;-1.496;2024-03-06T12:59:31;23.13;;;12.20;;
73919;SDS011;62266;53.348;-1.496;2024-03-06T13:02:15;23.45;;;13.27;;
73919;SDS011;62266;53.348;-1.496;2024-03-06T13:04:59;22.73;;;12.15;;
73919;SDS011;62266;53.348;-1.496;2024-03-06T13:07:43;27.45;;;13.95;;
73919;SDS011;62266;53.348;-1.496;2024-03-06T13:10:28;23.75;;;13.57;;
73919;SDS011;62266;53.348;-1.496;2024-03-06T13:13:12;25.53;;;13.80;;
73919;SDS011;62266;53.348;-1.496;2024-03-06T13:15:56;22.80;;;12.55;;
73919;SDS011;62266;53.348;-1.496;2024-03-06T13:18:41;25.85;;;13.50;;
73919;SDS011;62266;53.348;-1.496;2024-03-06T13:21:25;24.15;;;12.98;;
73919;SDS011;62266;53.348;-1.496;2024-03-06T13:24:09;22.85;;;13.82;;
73919;SDS011;62266;53.348;-1.496;2024-03-06T13:26:54;21.00;;;12.30;;
73919;SDS011;62266;53.348;-1.496;2024-03-06T13:29:37;22.58;;;12.93;;
73919;SDS011;62266;53.348;-1.496;2024-03-06T13:32:30;19.48;;;11.70;;
73919;SDS011;62266;53.348;-1.496;2024-03-06T13:35:24;20.90;;;12.52;;
73919;SDS011;62266;53.348;-1.496;2024-03-06T13:38:08;19.55;;;12.63;;
73919;SDS011;62266;53.348;-1.496;2024-03-06T13:40:53;21.87;;;12.77;;
73919;SDS011;62266;53.348;-1.496;2024-03-06T13:43:38;23.02;;;11.75;;
73919;SDS011;62266;53.348;-1.496;2024-03-06T13:46:22;18.15;;;11.70;;
73919;SDS011;62266;53.348;-1.496;2024-03-06T13:49:06;21.58;;;11.60;;
73919;SDS011;62266;53.348;-1.496;2024-03-06T13:51:50;19.52;;;11.73;;
73919;SDS011;62266;53.348;-1.496;2024-03-06T13:54:35;17.97;;;10.83;;
73919;SDS011;62266;53.348;-1.496;2024-03-06T13:57:23;19.20;;;11.50;;
73919;SDS011;62266;53.348;-1.496;2024-03-06T14:00:11;18.35;;;10.73;;
73919;SDS011;62266;53.348;-1.496;2024-03-06T14:03:03;18.15;;;11.38;;
73919;SDS011;62266;53.348;-1.496;2024-03-06T14:05:47;20.10;;;11.00;;
73919;SDS011;62266;53.348;-1.496;2024-03-06T14:08:35;16.93;;;10.43;;
73919;SDS011;62266;53.348;-1.496;2024-03-06T14:11:21;18.98;;;10.82;;
73919;SDS011;62266;53.348;-1.496;2024-03-06T14:14:05;20.77;;;11.02;;
73919;SDS011;62266;53.348;-1.496;2024-03-06T14:16:50;16.38;;;10.73;;
73919;SDS011;62266;53.348;-1.496;2024-03-06T14:19:35;16.15;;;10.68;;
73919;SDS011;62266;53.348;-1.496;2024-03-06T14:22:19;22.50;;;13.03;;
73919;SDS011;62266;53.348;-1.496;2024-03-06T14:25:03;24.05;;;12.20;;
73919;SDS011;62266;53.348;-1.496;2024-03-06T14:27:48;22.15;;;12.00;;
73919;SDS011;62266;53.348;-1.496;2024-03-06T14:30:32;18.35;;;11.38;;
73919;SDS011;62266;53.348;-1.496;2024-03-06T14:33:16;20.98;;;12.60;;
73919;SDS011;62266;53.348;-1.496;2024-03-06T14:36:00;22.00;;;11.83;;
73919;SDS011;62266;53.348;-1.496;2024-03-06T14:38:44;18.58;;;10.80;;
73919;SDS011;62266;53.348;-1.496;2024-03-06T14:41:28;19.05;;;11.00;;
73919;SDS011;62266;53.348;-1.496;2024-03-06T14:44:12;19.42;;;11.27;;
73919;SDS011;62266;53.348;-1.496;2024-03-06T14:46:57;18.65;;;12.15;;
73919;SDS011;62266;53.348;-1.496;2024-03-06T14:49:42;19.77;;;11.03;;
73919;SDS011;62266;53.348;-1.496;2024-03-06T14:52:26;17.98;;;11.40;;
73919;SDS011;62266;53.348;-1.496;2024-03-06T14:55:10;21.98;;;12.27;;
73919;SDS011;62266;53.348;-1.496;2024-03-06T14:57:54;16.85;;;11.50;;
73919;SDS011;62266;53.348;-1.496;2024-03-06T15:00:38;21.15;;;12.48;;
73919;SDS011;62266;53.348;-1.496;2024-03-06T15:03:21;21.77;;;12.17;;
73919;SDS011;62266;53.348;-1.496;2024-03-06T15:06:06;19.52;;;11.73;;
73919;SDS011;62266;53.348;-1.496;2024-03-06T15:08:54;19.25;;;12.50;;
73919;SDS011;62266;53.348;-1.496;2024-03-06T15:11:39;22.17;;;11.45;;
73919;SDS011;62266;53.348;-1.496;2024-03-06T15:14:24;21.63;;;11.52;;
73919;SDS011;62266;53.348;-1.496;2024-03-06T15:17:08;22.80;;;12.13;;
73919;SDS011;62266;53.348;-1.496;2024-03-06T15:19:53;23.42;;;12.90;;
73919;SDS011;62266;53.348;-1.496;2024-03-06T15:22:37;24.75;;;13.23;;
73919;SDS011;62266;53.348;-1.496;2024-03-06T15:25:25;24.63;;;14.15;;
73919;SDS011;62266;53.348;-1.496;2024-03-06T15:28:10;25.95;;;15.60;;
73919;SDS011;62266;53.348;-1.496;2024-03-06T15:30:55;26.83;;;14.03;;
73919;SDS011;62266;53.348;-1.496;2024-03-06T15:33:40;26.23;;;14.27;;
73919;SDS011;62266;53.348;-1.496;2024-03-06T15:36:25;29.77;;;14.73;;
73919;SDS011;62266;53.348;-1.496;2024-03-06T15:39:09;27.13;;;14.98;;
73919;SDS011;62266;53.348;-1.496;2024-03-06T15:41:53;27.58;;;15.13;;
73919;SDS011;62266;53.348;-1.496;2024-03-06T15:44:39;25.53;;;14.33;;
73919;SDS011;62266;53.348;-1.496;2024-03-06T15:47:25;24.40;;;13.85;;
73919;SDS011;62266;53.348;-1.496;2024-03-06T15:50:09;26.30;;;14.10;;
73919;SDS011;62266;53.348;-1.496;2024-03-06T15:52:54;25.27;;;13.48;;
73919;SDS011;62266;53.348;-1.496;2024-03-06T15:55:39;26.75;;;14.70;;
73919;SDS011;62266;53.348;-1.496;2024-03-06T15:58:24;27.67;;;14.40;;
73919;SDS011;62266;53.348;-1.496;2024-03-06T16:01:08;32.45;;;14.90;;
73919;SDS011;62266;53.348;-1.496;2024-03-06T16:03:52;27.60;;;15.52;;
73919;SDS011;62266;53.348;-1.496;2024-03-06T16:06:36;26.45;;;15.38;;
73919;SDS011;62266;53.348;-1.496;2024-03-06T16:09:20;28.30;;;15.70;;
73919;SDS011;62266;53.348;-1.496;2024-03-06T16:12:05;27.93;;;15.90;;